Time;durP1;ratioP1;P1;durP2;ratioP2;P2;SDS_P1;SDS_P2;PMS_P1;PMS_P2;Temp;Humidity;BMP_temperature;BMP_pressure;BME280_temperature;BME280_humidity;BME280_pressure;Samples;Min_cycle;Max_cycle;Signal;HPM_P1;HPM_P2
2022/09/25 00:00:58;;;;;;;31.30;18.80;;;12.20;99.90;;;10.83;100.00;100449.50;4991260;28;20041;-74
2022/09/25 00:03:26;;;;;;;37.35;19.55;;;12.20;99.90;;;10.82;100.00;100445.09;4993715;28;20030;-75
2022/09/25 00:06:00;;;;;;;33.85;20.13;;;12.20;99.90;;;10.82;100.00;100442.38;4997165;28;20392;-75
2022/09/25 00:08:26;;;;;;;36.08;20.08;;;12.20;99.90;;;10.83;100.00;100441.31;5002493;28;20034;-75
2022/09/25 00:10:51;;;;;;;35.22;21.17;;;12.20;99.90;;;10.82;100.00;100447.84;5008203;28;20041;-75
2022/09/25 00:13:20;;;;;;;37.60;21.00;;;12.20;99.90;;;10.81;100.00;100437.97;4996328;28;20437;-73
2022/09/25 00:15:55;;;;;;;39.13;21.25;;;12.20;99.90;;;10.81;100.00;100448.91;5000826;28;20510;-75
2022/09/25 00:21:13;;;;;;;37.00;21.75;;;12.20;99.90;;;10.80;100.00;100425.41;5001949;28;20408;-75
2022/09/25 00:23:43;;;;;;;39.30;22.45;;;12.20;99.90;;;10.80;100.00;100430.84;5001826;28;20592;-75
2022/09/25 00:26:11;;;;;;;39.03;22.55;;;12.20;99.90;;;10.81;100.00;100437.97;5007660;28;20033;-74
2022/09/25 00:28:39;;;;;;;42.28;23.80;;;12.20;99.90;;;10.79;100.00;100430.00;5005890;28;20120;-75
2022/09/25 00:31:06;;;;;;;44.40;23.73;;;12.20;99.90;;;10.80;100.00;100439.03;5004655;28;20042;-75
2022/09/25 00:33:34;;;;;;;47.47;24.83;;;12.20;99.90;;;10.81;100.00;100437.13;5004242;28;20041;-75
2022/09/25 00:36:07;;;;;;;48.88;25.58;;;12.20;99.90;;;10.74;100.00;100432.56;5001522;28;20030;-76
2022/09/25 00:38:36;;;;;;;44.38;23.70;;;12.10;99.90;;;10.73;100.00;100436.38;4995441;28;20105;-76
2022/09/25 00:41:04;;;;;;;44.05;22.65;;;12.10;99.90;;;10.71;100.00;100424.00;4996237;28;20041;-77
2022/09/25 00:43:44;;;;;;;39.30;20.88;;;12.10;99.90;;;10.72;100.00;100439.31;4996870;28;20584;-76
2022/09/25 00:46:30;;;;;;;40.08;21.13;;;12.10;99.90;;;10.68;100.00;100430.75;4999007;28;20037;-75
2022/09/25 00:49:11;;;;;;;40.63;20.77;;;12.10;99.90;;;10.66;100.00;100435.59;4997829;28;20100;-75
2022/09/25 00:51:47;;;;;;;34.35;19.52;;;12.10;99.90;;;10.64;100.00;100424.88;5001322;28;20046;-76
2022/09/25 00:54:21;;;;;;;36.65;20.23;;;12.00;99.90;;;10.61;100.00;100429.97;5002836;28;20124;-76
2022/09/25 00:56:50;;;;;;;39.10;20.40;;;12.00;99.90;;;10.61;100.00;100440.88;4995474;28;20180;-77
2022/09/25 00:59:26;;;;;;;36.08;19.95;;;12.00;99.90;;;10.60;100.00;100436.47;4997003;28;20037;-77
2022/09/25 01:01:51;;;;;;;36.58;19.00;;;12.00;99.90;;;10.59;100.00;100438.38;4999927;28;20038;-75
2022/09/25 01:04:18;;;;;;;38.63;18.52;;;12.00;99.90;;;10.60;100.00;100436.47;4999507;28;20176;-75
2022/09/25 01:06:44;;;;;;;41.30;19.35;;;12.00;99.90;;;10.58;100.00;100433.13;4998770;28;20037;-75
2022/09/25 01:09:10;;;;;;;45.47;19.58;;;12.00;99.90;;;10.59;100.00;100440.25;4993840;28;20084;-74
2022/09/25 01:11:36;;;;;;;46.47;20.30;;;12.00;99.90;;;10.56;100.00;100440.69;5000100;28;20449;-74
2022/09/25 01:14:07;;;;;;;53.60;19.55;;;12.00;99.90;;;10.57;100.00;100436.91;5001363;28;20026;-75
2022/09/25 01:16:57;;;;;;;47.42;19.65;;;12.00;99.90;;;10.57;100.00;100439.63;4998313;28;20061;-74
2022/09/25 01:20:01;;;;;;;52.42;20.80;;;12.00;99.90;;;10.53;100.00;100438.41;4996295;28;20037;-74
2022/09/25 01:23:04;;;;;;;51.75;20.02;;;11.90;99.90;;;10.50;100.00;100434.25;4997691;28;20040;-75
2022/09/25 01:26:12;;;;;;;52.83;20.10;;;11.90;99.90;;;10.46;100.00;100433.84;5006940;28;20034;-76
2022/09/25 01:29:08;;;;;;;55.55;20.33;;;11.90;99.90;;;10.47;100.00;100431.94;5001349;28;20030;-76
2022/09/25 01:31:58;;;;;;;52.03;20.48;;;11.90;99.90;;;10.46;100.00;100435.72;5001615;28;20041;-75
2022/09/25 01:34:58;;;;;;;50.92;20.45;;;11.90;99.90;;;10.47;100.00;100435.53;5003130;28;20169;-75
2022/09/25 01:37:49;;;;;;;54.25;21.27;;;11.90;99.90;;;10.42;100.00;100429.91;4998048;28;20160;-75
2022/09/25 01:40:42;;;;;;;58.50;21.05;;;11.90;99.90;;;10.45;100.00;100442.25;4992999;28;20033;-76
2022/09/25 01:43:13;;;;;;;59.13;21.55;;;11.80;99.90;;;10.43;100.00;100442.47;4991250;28;20038;-75
2022/09/25 01:46:03;;;;;;;55.28;21.88;;;11.80;99.90;;;10.48;100.00;100437.19;4996660;28;20038;-74
2022/09/25 01:48:33;;;;;;;59.67;21.23;;;11.90;99.90;;;10.37;100.00;100424.25;4993881;28;20084;-74
2022/09/25 01:51:08;;;;;;;56.40;21.50;;;11.80;99.90;;;10.44;100.00;100435.13;4998308;28;20457;-76
2022/09/25 01:53:42;;;;;;;57.45;21.38;;;11.90;99.90;;;10.42;100.00;100446.25;5001034;28;20021;-76
2022/09/25 01:56:21;;;;;;;53.25;21.42;;;11.90;99.90;;;10.42;100.00;100439.97;5004971;28;20404;-75
2022/09/25 01:58:57;;;;;;;;;;;11.80;99.90;;;10.43;100.00;100433.44;5001533;28;20026;-75
2022/09/25 02:01:32;;;;;;;50.45;21.10;;;11.80;99.90;;;10.43;100.00;100437.03;5000741;28;20044;-75
2022/09/25 02:04:11;;;;;;;59.75;22.85;;;11.80;99.90;;;10.38;100.00;100425.91;5002717;28;20052;-75
2022/09/25 02:06:42;;;;;;;57.78;22.23;;;11.80;99.90;;;10.31;100.00;100423.22;5000510;28;20136;-75
2022/09/25 02:09:28;;;;;;;60.17;23.42;;;11.80;99.90;;;10.39;100.00;100427.59;5005026;28;20056;-75
2022/09/25 02:11:59;;;;;;;60.20;22.50;;;11.80;99.90;;;10.37;100.00;100429.69;4991791;28;20495;-75
2022/09/25 02:14:55;;;;;;;61.72;22.48;;;11.80;99.90;;;10.33;100.00;100420.25;4999289;28;20184;-76
2022/09/25 02:20:30;;;;;;;60.65;23.08;;;11.80;99.90;;;10.38;100.00;100425.06;4995608;28;20116;-75
2022/09/25 02:23:10;;;;;;;58.78;24.08;;;11.80;99.90;;;10.38;100.00;100419.59;4998960;28;20473;-75
2022/09/25 02:25:43;;;;;;;71.55;26.13;;;11.80;99.90;;;10.39;100.00;100422.13;4994776;28;20056;-74
2022/09/25 02:28:09;;;;;;;64.25;24.48;;;11.80;99.90;;;10.38;100.00;100427.78;5004233;28;20072;-75
2022/09/25 02:30:35;;;;;;;63.97;24.67;;;11.80;99.90;;;10.37;100.00;100424.25;5002928;28;20121;-75
2022/09/25 02:33:01;;;;;;;65.47;26.92;;;11.80;99.90;;;10.36;100.00;100433.47;4995291;28;20542;-76
2022/09/25 02:35:27;;;;;;;68.65;25.27;;;11.80;99.90;;;10.36;100.00;100434.31;4996775;28;20033;-73
2022/09/25 02:37:55;;;;;;;63.17;27.52;;;11.80;99.90;;;10.33;100.00;100426.56;4997273;28;20649;-74
2022/09/25 02:40:47;;;;;;;63.25;26.63;;;11.80;99.90;;;10.30;100.00;100428.88;4994773;28;20038;-74
2022/09/25 02:43:49;;;;;;;66.15;27.77;;;11.70;99.90;;;10.34;100.00;100441.03;5001253;28;20042;-76
2022/09/25 02:46:52;;;;;;;70.28;28.77;;;11.80;99.90;;;10.33;100.00;100433.91;4993893;28;20044;-74
2022/09/25 02:49:45;;;;;;;79.47;31.77;;;11.80;99.90;;;10.33;100.00;100433.91;5000772;28;20050;-74
2022/09/25 02:52:21;;;;;;;83.13;30.88;;;11.70;99.90;;;10.28;100.00;100425.56;4998211;28;20081;-75
2022/09/25 02:55:11;;;;;;;77.32;31.27;;;11.70;99.90;;;10.31;100.00;100430.56;4995221;28;20065;-74
2022/09/25 02:57:57;;;;;;;;;;;11.70;99.90;;;10.32;100.00;100434.94;4999403;28;20552;-75
2022/09/25 03:00:23;;;;;;;83.07;31.55;;;11.70;99.90;;;10.30;100.00;100429.75;4991309;28;19925;-74
2022/09/25 03:02:58;;;;;;;91.95;34.47;;;11.70;99.90;;;10.30;100.00;100423.44;5000846;28;20033;-75
2022/09/25 03:05:25;;;;;;;87.88;34.22;;;11.70;99.90;;;10.25;100.00;100417.81;4998092;28;20149;-75
2022/09/25 03:10:38;;;;;;;90.45;34.15;;;11.70;99.90;;;10.28;100.00;100425.56;4997980;28;20045;-74
2022/09/25 03:13:30;;;;;;;98.30;36.03;;;11.70;99.90;;;10.26;100.00;100427.66;4993442;28;20038;-75
2022/09/25 03:16:20;;;;;;;85.03;34.95;;;11.70;99.90;;;10.27;100.00;100424.72;5001371;28;20494;-75
2022/09/25 03:18:47;;;;;;;93.65;35.47;;;11.70;99.90;;;10.26;100.00;100422.22;4995960;28;20057;-75
2022/09/25 03:21:12;;;;;;;96.00;35.38;;;11.70;99.90;;;10.27;100.00;100426.59;4989448;28;20026;-74
2022/09/25 03:23:38;;;;;;;96.22;34.53;;;11.70;99.90;;;10.26;100.00;100420.34;4993003;28;20441;-75
2022/09/25 03:26:05;;;;;;;107.20;35.75;;;11.70;99.90;;;10.27;100.00;100423.88;4999100;28;20084;-75
2022/09/25 03:28:31;;;;;;;103.10;36.50;;;11.70;99.90;;;10.28;100.00;100420.94;5004597;28;20085;-75
2022/09/25 03:30:59;;;;;;;104.30;36.45;;;11.70;99.90;;;10.30;100.00;100424.28;4993891;28;20030;-75
2022/09/25 03:33:33;;;;;;;100.70;36.85;;;11.70;99.90;;;10.32;100.00;100426.78;4996718;28;20133;-75
2022/09/25 03:36:09;;;;;;;100.35;36.72;;;11.70;99.90;;;10.21;100.00;100411.94;4996765;28;20034;-74
2022/09/25 03:38:36;;;;;;;98.55;35.97;;;11.70;99.90;;;10.28;100.00;100426.41;4993222;28;20041;-74
2022/09/25 03:41:07;;;;;;;97.32;35.38;;;11.70;99.90;;;10.25;100.00;100426.00;4997203;28;20057;-74
2022/09/25 03:43:35;;;;;;;90.25;33.72;;;11.70;99.90;;;10.23;100.00;100420.78;4995451;28;20117;-74
2022/09/25 03:46:02;;;;;;;;;;;11.70;99.90;;;10.22;100.00;100417.19;5003980;28;20036;-74
2022/09/25 03:48:29;;;;;;;88.35;32.08;;;11.60;99.90;;;10.21;100.00;100418.25;4989811;28;20044;-76
2022/09/25 03:50:56;;;;;;;84.97;31.80;;;11.60;99.90;;;10.19;100.00;100419.53;4997396;28;20066;-75
2022/09/25 03:53:24;;;;;;;85.72;31.95;;;11.60;99.90;;;10.15;100.00;100421.88;5001356;28;20358;-74
2022/09/25 03:55:50;;;;;;;76.65;31.83;;;11.60;99.90;;;10.14;100.00;100409.28;4994167;28;20112;-74
2022/09/25 03:58:17;;;;;;;78.22;31.92;;;11.60;99.90;;;10.22;100.00;100422.66;4997434;28;20250;-75
2022/09/25 04:00:45;;;;;;;75.30;33.30;;;11.60;99.90;;;10.19;100.00;100419.53;5001139;28;20037;-74
2022/09/25 04:03:13;;;;;;;87.35;33.65;;;11.60;99.90;;;10.21;100.00;100418.25;4990604;28;20038;-75
2022/09/25 04:05:40;;;;;;;83.07;33.03;;;11.60;99.90;;;10.20;100.00;100423.91;5002693;28;20407;-75
2022/09/25 04:08:05;;;;;;;79.40;31.90;;;11.70;99.90;;;10.25;100.00;100423.25;5002778;28;20401;-74
2022/09/25 04:10:37;;;;;;;70.30;28.75;;;11.70;99.90;;;10.24;100.00;100418.88;4995791;28;20054;-75
2022/09/25 04:13:05;;;;;;;68.68;28.42;;;11.70;99.90;;;10.12;100.00;100403.22;4991362;28;20472;-75
2022/09/25 04:15:32;;;;;;;;;;;11.60;99.90;;;10.19;100.00;100414.06;4997299;28;20626;-74
2022/09/25 04:17:58;;;;;;;63.40;26.27;;;11.60;99.90;;;10.22;100.00;100419.09;4995654;28;19913;-76
2022/09/25 04:20:23;;;;;;;66.82;29.10;;;11.60;99.90;;;10.15;100.00;100410.13;4989218;28;20042;-75
2022/09/25 04:22:49;;;;;;;58.33;27.80;;;11.60;99.90;;;10.17;100.00;100417.03;5002136;28;20042;-76
2022/09/25 04:25:15;;;;;;;60.53;26.45;;;11.60;99.90;;;10.17;100.00;100414.31;5002506;28;20041;-75
2022/09/25 04:27:43;;;;;;;59.22;25.75;;;11.60;99.90;;;10.18;100.00;100412.41;4992651;28;20088;-74
2022/09/25 04:30:10;;;;;;;55.55;24.73;;;11.60;99.90;;;10.18;100.00;100415.97;5005743;28;20444;-74
2022/09/25 04:35:20;;;;;;;46.78;24.00;;;11.60;99.90;;;10.18;100.00;100410.53;4995674;28;20148;-75
2022/09/25 04:37:46;;;;;;;47.30;23.17;;;11.60;99.90;;;10.20;100.00;100407.56;4998166;28;20032;-75
2022/09/25 04:40:12;;;;;;;42.25;22.05;;;11.60;99.90;;;10.21;100.00;100403.78;5000124;28;20026;-75
2022/09/25 04:42:41;;;;;;;45.95;21.80;;;11.60;99.90;;;10.19;100.00;100400.44;5004212;28;20102;-75
2022/09/25 04:45:07;;;;;;;45.60;21.25;;;11.60;99.90;;;10.19;100.00;100404.00;5006089;28;20108;-75
2022/09/25 04:47:33;;;;;;;45.38;21.67;;;11.60;99.90;;;10.22;100.00;100405.47;5007552;28;20496;-75
2022/09/25 04:49:59;;;;;;;41.92;22.50;;;9.90;99.90;;;10.19;100.00;100405.88;5004364;28;20132;-75
2022/09/25 04:52:25;;;;;;;42.28;22.05;;;11.60;99.90;;;10.24;100.00;100413.41;5001856;28;20103;-76
2022/09/25 04:54:50;;;;;;;47.63;22.42;;;11.70;99.90;;;10.19;100.00;100409.47;4992765;28;20374;-74
2022/09/25 04:57:20;;;;;;;47.08;23.55;;;11.60;99.90;;;10.16;100.00;100409.91;4996343;28;20108;-75
2022/09/25 04:59:49;;;;;;;43.17;23.13;;;11.60;99.90;;;10.18;100.00;100405.06;4995974;28;20035;-75
2022/09/25 05:02:15;;;;;;;43.78;22.77;;;11.60;99.90;;;10.17;100.00;100410.72;5001228;28;20037;-75
2022/09/25 05:04:41;;;;;;;50.50;25.50;;;11.60;99.90;;;10.12;100.00;100403.22;5007234;28;20484;-75
2022/09/25 05:07:07;;;;;;;48.90;24.23;;;11.60;99.90;;;10.18;100.00;100413.25;4999726;28;20115;-75
2022/09/25 05:09:33;;;;;;;47.05;25.60;;;11.60;99.90;;;10.16;100.00;100418.09;5001243;28;20108;-75
2022/09/25 05:11:59;;;;;;;51.75;26.10;;;11.60;99.90;;;10.16;100.00;100411.78;5000347;28;20480;-75
2022/09/25 05:14:25;;;;;;;49.17;25.00;;;11.60;99.90;;;10.15;100.00;100418.28;4989344;28;20044;-75
2022/09/25 05:16:51;;;;;;;44.85;25.38;;;11.60;99.90;;;10.14;100.00;100409.28;4999327;28;20044;-75
2022/09/25 05:19:17;;;;;;;48.58;25.40;;;11.60;99.90;;;10.17;100.00;100413.44;5005061;28;20041;-75
2022/09/25 05:21:42;;;;;;;49.90;25.73;;;11.60;99.90;;;10.16;100.00;100418.09;4998659;28;20076;-75
2022/09/25 05:24:09;;;;;;;50.00;25.42;;;11.60;99.90;;;10.16;100.00;100415.38;5000519;28;20053;-75
2022/09/25 05:26:36;;;;;;;44.92;24.10;;;11.60;99.90;;;10.17;100.00;100417.03;4992485;28;20026;-75
2022/09/25 05:29:03;;;;;;;44.38;24.58;;;11.60;99.90;;;10.15;100.00;100413.69;5001484;28;20038;-75
2022/09/25 05:31:31;;;;;;;48.90;23.73;;;11.60;99.90;;;10.13;100.00;100415.81;5002333;28;20044;-76
2022/09/25 05:33:57;;;;;;;48.53;22.50;;;11.60;99.90;;;10.11;100.00;100415.19;4998215;28;20392;-75
2022/09/25 05:36:23;;;;;;;46.95;22.63;;;11.60;99.90;;;10.12;100.00;100416.88;5000575;28;20030;-75
2022/09/25 05:38:49;;;;;;;42.03;23.02;;;11.60;99.90;;;10.14;100.00;100419.34;4997318;28;20045;-75
2022/09/25 05:41:15;;;;;;;50.80;24.20;;;11.60;99.90;;;10.15;100.00;100418.28;4992320;28;20390;-75
2022/09/25 05:43:45;;;;;;;42.22;21.77;;;11.60;99.90;;;10.12;100.00;100416.88;5006643;28;20030;-75
2022/09/25 05:46:11;;;;;;;36.05;20.70;;;11.60;99.90;;;10.11;100.00;100406.16;5002343;28;20029;-75
2022/09/25 05:48:37;;;;;;;37.08;20.70;;;11.60;99.90;;;10.14;100.00;100413.91;4898606;28;20961;-75
2022/09/25 05:51:03;;;;;;;37.65;20.27;;;11.50;99.90;;;10.14;100.00;100422.94;4925707;28;20046;-77
2022/09/25 05:53:29;;;;;;;34.85;19.40;;;11.60;99.90;;;10.13;100.00;100417.69;4977865;28;20030;-76
2022/09/25 05:56:04;;;;;;;35.78;19.75;;;11.60;99.90;;;10.16;100.00;100423.53;4983148;28;20501;-76
2022/09/25 05:58:32;;;;;;;34.00;17.73;;;11.60;99.90;;;10.19;100.00;100414.91;4975387;28;20026;-76
2022/09/25 06:01:05;;;;;;;30.50;17.50;;;11.60;99.90;;;10.14;100.00;100416.63;4963551;28;20085;-75
2022/09/25 06:03:31;;;;;;;32.00;18.40;;;11.60;99.90;;;10.17;100.00;100422.47;4982853;28;20026;-75
2022/09/25 06:06:00;;;;;;;30.63;17.65;;;11.60;99.90;;;10.14;100.00;100413.91;4978506;28;20053;-74
2022/09/25 06:08:29;;;;;;;31.05;16.95;;;11.60;99.90;;;10.15;100.00;100427.31;4975905;28;20085;-76
2022/09/25 06:10:56;;;;;;;34.00;17.33;;;11.60;99.90;;;10.18;100.00;100420.56;4981209;28;20123;-75
2022/09/25 06:13:24;;;;;;;30.20;16.77;;;11.60;99.90;;;10.16;100.00;100409.91;4978704;28;20026;-75
2022/09/25 06:15:51;;;;;;;33.83;16.77;;;11.60;99.90;;;10.17;100.00;100417.03;4986751;28;20034;-76
2022/09/25 06:18:20;;;;;;;28.30;15.88;;;11.60;99.90;;;10.21;100.00;100420.97;4980348;28;20484;-76
2022/09/25 06:20:46;;;;;;;31.90;16.67;;;11.60;99.90;;;10.24;100.00;100419.72;4980009;28;20109;-74
2022/09/25 06:23:12;;;;;;;30.13;16.88;;;11.70;99.90;;;10.25;100.00;100415.09;4983966;28;20061;-76
2022/09/25 06:25:39;;;;;;;31.83;16.92;;;11.70;99.90;;;10.29;100.00;100419.88;4984005;28;20065;-75
2022/09/25 06:28:06;;;;;;;30.60;17.05;;;11.70;99.90;;;10.31;100.00;100419.66;4982734;28;20042;-75
2022/09/25 06:30:35;;;;;;;29.80;15.95;;;11.70;99.90;;;10.34;100.00;100417.31;4983214;28;20441;-76
2022/09/25 06:33:11;;;;;;;26.58;15.38;;;11.80;99.90;;;10.29;100.00;100397.22;4977988;28;20126;-75
2022/09/25 06:35:43;;;;;;;26.20;15.77;;;11.80;99.90;;;10.39;100.00;100415.81;4972474;28;20042;-78
2022/09/25 06:38:10;;;;;;;26.88;14.98;;;11.80;99.90;;;10.40;100.00;100410.19;4971763;28;20038;-77
2022/09/25 06:40:39;;;;;;;27.42;14.70;;;11.90;99.90;;;10.43;100.00;100417.94;4971507;28;20109;-74
2022/09/25 06:43:08;;;;;;;27.40;15.10;;;11.90;99.90;;;10.46;100.00;100412.03;4973037;28;20049;-77
2022/09/25 06:45:38;;;;;;;21.55;12.25;;;11.90;99.90;;;10.46;100.00;100413.91;4967325;28;20101;-76
2022/09/25 06:48:11;;;;;;;24.23;13.98;;;11.90;99.90;;;10.47;100.00;100419.16;4974435;28;20556;-77
2022/09/25 06:50:46;;;;;;;19.58;12.55;;;11.90;99.90;;;10.48;100.00;100418.09;4968086;28;20462;-78
2022/09/25 06:53:14;;;;;;;20.52;11.70;;;12.00;99.90;;;10.47;100.00;100413.69;4970172;28;20038;-76
2022/09/25 06:55:40;;;;;;;21.50;12.32;;;12.00;99.90;;;10.50;100.00;100420.63;4978434;28;20089;-74
2022/09/25 06:58:10;;;;;;;24.83;11.23;;;12.00;99.90;;;10.44;100.00;100410.56;4974766;28;20062;-77
2022/09/25 07:00:35;;;;;;;21.13;12.25;;;12.00;99.90;;;10.50;100.00;100418.72;4988141;28;20068;-79
2022/09/25 07:05:47;;;;;;;18.45;10.45;;;12.00;99.90;;;10.61;100.00;100416.34;4975986;28;20099;-77
2022/09/25 07:08:19;;;;;;;18.30;11.18;;;12.10;99.90;;;10.65;100.00;100421.09;4978075;28;20061;-76
2022/09/25 07:10:54;;;;;;;19.85;10.80;;;12.10;99.90;;;10.61;100.00;100408.16;4977960;28;20034;-80
2022/09/25 07:13:27;;;;;;;22.45;10.73;;;12.20;99.90;;;10.71;100.00;100422.09;4974237;28;20092;-80
2022/09/25 07:16:11;;;;;;;18.42;10.32;;;12.20;99.90;;;10.75;100.00;100419.78;4980194;28;20101;-78
2022/09/25 07:18:37;;;;;;;19.17;9.98;;;12.20;99.90;;;10.81;100.00;100413.41;4979239;28;20113;-78
2022/09/25 07:21:11;;;;;;;19.85;9.85;;;12.30;99.90;;;10.88;100.00;100421.56;4979661;28;20034;-78
2022/09/25 07:23:37;;;;;;;19.10;9.50;;;12.40;99.90;;;10.93;100.00;100419.81;4980353;28;20046;-78
2022/09/25 07:26:13;;;;;;;16.73;10.30;;;12.40;99.90;;;11.06;100.00;100427.03;4975119;28;20189;-76
2022/09/25 07:28:40;;;;;;;17.83;9.88;;;12.50;99.90;;;11.05;100.00;100419.91;4977549;28;20041;-76
2022/09/25 07:31:18;;;;;;;17.38;9.68;;;12.60;99.90;;;11.12;100.00;100435.38;4982684;28;20030;-76
2022/09/25 07:33:45;;;;;;;17.10;9.20;;;12.60;99.90;;;11.17;100.00;100439.09;4975903;28;20038;-75
2022/09/25 07:36:12;;;;;;;18.07;8.93;;;12.60;99.90;;;11.22;100.00;100435.69;4974786;28;20541;-76
2022/09/25 07:38:38;;;;;;;14.23;8.57;;;12.70;99.90;;;11.22;100.00;100441.97;4979026;28;20054;-76
2022/09/25 07:41:06;;;;;;;15.38;8.02;;;12.70;99.90;;;11.28;100.00;100442.16;4970170;28;20153;-75
2022/09/25 07:43:33;;;;;;;16.80;7.80;;;12.70;99.90;;;11.21;100.00;100447.69;4971916;28;20041;-76
2022/09/25 07:46:00;;;;;;;17.40;8.13;;;12.70;99.90;;;11.24;100.00;100449.97;4969674;28;20415;-75
2022/09/25 07:48:26;;;;;;;13.13;7.82;;;12.70;99.90;;;11.30;100.00;100443.59;4967552;28;20565;-79
2022/09/25 07:50:54;;;;;;;17.63;8.52;;;12.70;99.90;;;11.38;100.00;100445.19;4976084;28;20053;-77
2022/09/25 07:53:20;;;;;;;15.50;8.70;;;12.80;99.90;;;11.25;100.00;100437.13;4968073;28;20034;-80
2022/09/25 07:55:46;;;;;;;14.55;7.97;;;12.80;99.90;;;11.31;100.00;100438.97;4970565;28;20090;-77
2022/09/25 07:58:13;;;;;;;13.55;7.43;;;12.80;99.90;;;11.26;100.00;100439.63;4980056;28;20027;-78
2022/09/25 08:00:39;;;;;;;16.45;8.75;;;12.80;99.90;;;11.47;100.00;100443.81;4975816;28;20054;-78
2022/09/25 08:03:07;;;;;;;17.30;8.98;;;12.90;99.90;;;11.54;100.00;100448.34;4974234;28;20544;-78
2022/09/25 08:05:33;;;;;;;14.52;8.48;;;12.90;99.90;;;11.55;100.00;100445.41;4978300;28;20050;-77
2022/09/25 08:07:59;;;;;;;17.20;8.32;;;13.00;99.90;;;11.49;100.00;100447.16;4979871;28;20111;-77
2022/09/25 08:10:24;;;;;;;14.65;9.70;;;13.00;99.90;;;11.25;100.00;100448.03;4981253;28;20044;-77
2022/09/25 08:12:50;;;;;;;17.40;9.75;;;12.90;99.90;;;11.13;100.00;100442.50;4979417;28;20062;-78
2022/09/25 08:15:16;;;;;;;17.63;10.85;;;12.70;99.90;;;11.04;100.00;100450.97;4978244;28;20038;-78
2022/09/25 08:17:42;;;;;;;19.15;11.10;;;12.60;99.90;;;11.04;100.00;100444.69;4983936;28;20441;-76
2022/09/25 08:20:09;;;;;;;18.30;11.82;;;12.50;99.90;;;11.07;100.00;100450.53;4982128;28;20030;-77
2022/09/25 08:22:34;;;;;;;21.42;12.73;;;12.50;99.90;;;11.07;100.00;100453.25;4975309;28;20023;-76
2022/09/25 08:25:03;;;;;;;24.25;12.35;;;12.50;99.90;;;11.06;100.00;100454.31;4972908;28;20065;-78
2022/09/25 08:27:30;;;;;;;24.35;11.73;;;12.50;99.90;;;11.04;100.00;100450.97;4978023;28;20564;-78
2022/09/25 08:29:56;;;;;;;20.10;12.85;;;12.50;99.90;;;11.10;100.00;100457.44;4979962;28;20089;-76
2022/09/25 08:32:22;;;;;;;17.67;11.65;;;12.60;99.90;;;11.07;100.00;100450.53;4979792;28;20046;-78
2022/09/25 08:34:47;;;;;;;21.33;12.18;;;12.60;99.90;;;11.11;100.00;100458.25;4981009;28;20027;-78
2022/09/25 08:37:14;;;;;;;19.95;11.73;;;12.60;99.90;;;11.18;100.00;100453.59;4981101;28;20580;-79
2022/09/25 08:39:40;;;;;;;22.30;12.25;;;12.60;99.90;;;11.31;100.00;100460.81;4979859;28;20389;-78
2022/09/25 08:42:13;;;;;;;22.50;13.23;;;12.70;99.90;;;11.43;100.00;100466.38;4986985;28;20555;-78
2022/09/25 08:44:46;;;;;;;20.38;12.93;;;12.80;99.90;;;11.31;100.00;100458.91;4984663;28;20060;-78
2022/09/25 08:50:12;;;;;;;24.17;11.95;;;12.90;99.90;;;11.54;100.00;100462.88;4976019;28;20039;-78
2022/09/25 08:52:48;;;;;;;16.75;12.07;;;13.00;99.90;;;11.49;100.00;100458.06;4984525;28;20034;-78
2022/09/25 08:58:39;;;;;;;20.60;11.60;;;13.00;99.90;;;11.57;100.00;100467.06;4977980;28;20162;-78
2022/09/25 09:01:14;;;;;;;16.70;10.57;;;13.00;99.90;;;11.61;100.00;100466.34;4976341;28;20436;-78
2022/09/25 09:04:05;;;;;;;16.27;10.30;;;13.00;99.90;;;11.66;100.00;100466.50;4985083;28;20018;-78
2022/09/25 09:06:33;;;;;;;16.45;10.60;;;13.10;99.90;;;11.57;100.00;100476.06;4977087;28;20714;-77
2022/09/25 09:09:35;;;;;;;13.68;9.65;;;13.00;99.90;;;11.54;100.00;100472.94;4973469;28;20045;-79
2022/09/25 09:12:36;;;;;;;17.45;9.70;;;13.10;99.90;;;11.58;100.00;100479.66;4977732;28;20040;-78
2022/09/25 09:15:35;;;;;;;16.58;9.68;;;13.10;99.90;;;11.68;100.00;100476.38;4984175;28;20081;-77
2022/09/25 09:18:20;;;;;;;16.30;8.88;;;13.10;99.90;;;11.75;100.00;100477.13;4975963;28;20061;-77
2022/09/25 09:20:55;;;;;;;14.45;9.07;;;13.10;99.90;;;11.84;100.00;100481.22;4963799;28;20045;-75
2022/09/25 09:23:47;;;;;;;15.95;8.52;;;13.20;99.90;;;11.87;100.00;100471.72;4979978;28;20405;-76
2022/09/25 09:26:19;;;;;;;14.52;8.70;;;13.40;99.90;;;12.01;100.00;100475.97;4973487;28;20031;-77
2022/09/25 09:29:30;;;;;;;17.80;9.02;;;13.50;99.90;;;11.99;100.00;100469.88;4981167;28;20019;-76
2022/09/25 09:32:24;;;;;;;11.30;8.15;;;13.40;99.90;;;11.93;100.00;100470.81;4979365;28;20045;-78
2022/09/25 09:35:24;;;;;;;14.38;8.35;;;13.50;99.90;;;12.05;100.00;100470.88;4980650;28;20513;-79
2022/09/25 09:38:03;;;;;;;13.68;7.97;;;13.50;99.90;;;12.19;100.00;100469.63;4975763;28;20111;-78
2022/09/25 09:41:20;;;;;;;12.65;7.70;;;13.70;99.90;;;12.25;100.00;100467.88;4978296;28;20031;-79
2022/09/25 09:44:00;;;;;;;13.30;8.10;;;13.70;99.90;;;12.26;100.00;100466.81;4978319;28;20034;-79
2022/09/25 09:46:55;;;;;;;13.63;7.97;;;13.70;99.90;;;12.02;100.00;100460.41;4979753;28;20113;-78
2022/09/25 09:49:40;;;;;;;11.40;7.32;;;13.60;99.90;;;12.10;100.00;100476.50;4984917;28;20056;-79
2022/09/25 09:52:27;;;;;;;13.73;8.52;;;13.60;99.90;;;12.01;100.00;100464.22;4983805;28;20133;-79
2022/09/25 09:55:19;;;;;;;16.67;8.20;;;13.50;99.90;;;11.85;100.00;100469.22;4975028;28;20035;-82
2022/09/25 09:57:59;;;;;;;15.43;7.38;;;13.30;99.90;;;11.92;100.00;100471.88;4983132;28;20033;-85
2022/09/25 10:00:24;;;;;;;13.57;7.85;;;13.30;99.90;;;11.89;100.00;100466.88;4983663;28;20022;-81
2022/09/25 10:03:02;;;;;;;12.30;8.13;;;13.30;99.90;;;11.74;100.00;100465.34;4988195;28;20031;-80
2022/09/25 10:05:46;;;;;;;17.77;8.02;;;13.30;99.90;;;11.78;100.00;100465.75;4971004;28;20074;-81
2022/09/25 10:08:12;;;;;;;13.35;8.60;;;13.30;99.90;;;11.72;100.00;100453.81;4977001;28;20062;-83
2022/09/25 10:10:43;;;;;;;13.57;8.30;;;13.30;99.90;;;11.85;100.00;100457.47;4967911;28;20030;-82
2022/09/25 10:13:20;;;;;;;13.55;8.05;;;13.30;99.90;;;11.97;100.00;100463.81;4978072;28;20489;-85
2022/09/25 10:16:16;;;;;;;12.10;7.95;;;13.40;99.90;;;12.11;100.00;100461.75;4994760;28;20046;-84
2022/09/25 10:19:13;;;;;;;13.30;8.18;;;13.50;99.90;;;12.12;100.00;100466.16;4980490;28;20404;-83
2022/09/25 10:22:13;;;;;;;14.73;8.15;;;13.50;99.90;;;12.28;100.00;100469.31;4977573;28;20036;-86
2022/09/25 10:25:00;;;;;;;;;;;13.70;99.90;;;12.31;100.00;100457.91;4982123;28;20117;-82
2022/09/25 10:27:42;;;;;;;13.00;8.27;;;13.70;99.90;;;12.25;100.00;100473.34;4974301;28;19925;-83
2022/09/25 10:30:08;;;;;;;13.05;8.18;;;13.70;99.90;;;12.21;100.00;100470.25;4976447;28;20042;-82
2022/09/25 10:33:01;;;;;;;15.38;7.95;;;13.70;99.90;;;12.33;100.00;100467.56;4977816;28;20470;-82
2022/09/25 10:35:47;;;;;;;11.25;7.68;;;13.70;99.90;;;12.56;100.00;100473.31;4969968;28;20042;-80
2022/09/25 10:38:31;;;;;;;13.70;7.82;;;13.90;99.90;;;12.76;100.00;100462.91;4973535;28;20113;-81
2022/09/25 10:41:12;;;;;;;10.27;7.38;;;14.10;99.90;;;12.87;100.00;100469.47;4978523;28;20031;-80